Moorhead, Iowa
Current Conditions -  °F | °C
As of 8:54 AM on Saturday 01 Nov 2014 (Local Time) from KTQE Reporting Station
Clear Clear  
Wind Chill: 21°   Ceiling: Unl
Heat Index: 30°   Visibility: 10mi
Dew Point: 22°   Wind: 10mph
Humidity: 72%   Direction: 140°SE
Pressure: 30.39"   Gusts: NA
Location:  41.92°N, 95.85°W
Report Text: KTQE 011354Z AUTO 14009KT 10SM CLR M01/M06 A3039 RMK AO2 SLP300 T10111056
Loading
Personal Weather Stations






























Interactive Weather Map
Tropical Storm Tracking
New forecast layout! Learn more

10-Day Weather Forecast

Advertisements
Track Severe Weather on mobile